createdAt,value
2023-04-14T00:01:52.196Z,96790.00
2023-04-14T00:04:19.211Z,96797.00
2023-04-14T00:06:45.398Z,96788.00
2023-04-14T00:09:11.742Z,96785.00
2023-04-14T00:11:37.881Z,96788.00
2023-04-14T00:14:05.427Z,96792.00
2023-04-14T00:16:31.783Z,96804.00
2023-04-14T00:18:58.198Z,96797.00
2023-04-14T00:21:25.957Z,96807.00
2023-04-14T00:23:52.372Z,96803.00
2023-04-14T00:26:18.744Z,96812.00
2023-04-14T00:28:45.072Z,96812.00
2023-04-14T00:31:12.046Z,96802.00
2023-04-14T00:33:38.236Z,96799.00
2023-04-14T00:36:04.902Z,96787.00
2023-04-14T00:38:31.024Z,96814.00
2023-04-14T00:40:57.455Z,96811.00
2023-04-14T00:43:23.813Z,96819.00
2023-04-14T00:45:51.982Z,96817.00
2023-04-14T00:48:19.458Z,96816.00
2023-04-14T00:50:47.005Z,96810.00
2023-04-14T00:53:14.171Z,96828.00
2023-04-14T00:55:40.989Z,96805.00
2023-04-14T00:58:08.018Z,96806.00
2023-04-14T01:00:35.381Z,96815.00
2023-04-14T01:03:01.983Z,96807.00
2023-04-14T01:05:28.334Z,96820.00
2023-04-14T01:07:54.682Z,96808.00
2023-04-14T01:10:21.317Z,96831.00
2023-04-14T01:13:34.634Z,96824.00
2023-04-14T01:16:22.373Z,96820.00
2023-04-14T01:19:16.068Z,96834.00
2023-04-14T01:21:52.720Z,96826.00
2023-04-14T01:24:44.143Z,96837.00
2023-04-14T01:28:14.610Z,96842.00
2023-04-14T01:31:12.868Z,96830.00
2023-04-14T01:33:43.188Z,96832.00
2023-04-14T01:36:27.783Z,96814.00
2023-04-14T01:38:56.873Z,96814.00
2023-04-14T01:41:27.934Z,96833.00
2023-04-14T01:43:55.609Z,96825.00
2023-04-14T01:46:22.113Z,96824.00
2023-04-14T01:48:50.238Z,96815.00
2023-04-14T01:51:20.634Z,96819.00
2023-04-14T01:53:50.111Z,96832.00
2023-04-14T01:56:18.829Z,96818.00
2023-04-14T01:58:47.907Z,96824.00
2023-04-14T02:01:16.486Z,96827.00
2023-04-14T02:03:45.129Z,96818.00
2023-04-14T02:06:13.456Z,96827.00
2023-04-14T02:08:41.557Z,96828.00
2023-04-14T02:11:10.480Z,96823.00
2023-04-14T02:13:40.613Z,96831.00
2023-04-14T02:16:10.638Z,96820.00
2023-04-14T02:18:39.810Z,96813.00
2023-04-14T02:21:08.359Z,96818.00
2023-04-14T02:23:36.675Z,96814.00
2023-04-14T02:26:14.157Z,96808.00
2023-04-14T02:28:49.668Z,96819.00
2023-04-14T02:31:23.023Z,96835.00
2023-04-14T02:33:55.137Z,96833.00
2023-04-14T02:36:36.803Z,96841.00
2023-04-14T02:39:13.701Z,96835.00
2023-04-14T02:41:43.674Z,96839.00
2023-04-14T02:44:28.816Z,96840.00
2023-04-14T02:47:07.159Z,96846.00
2023-04-14T02:49:43.576Z,96837.00
2023-04-14T02:52:16.926Z,96857.00
2023-04-14T02:54:47.440Z,96847.00
2023-04-14T02:57:15.214Z,96849.00
2023-04-14T02:59:46.870Z,96839.00
2023-04-14T03:02:15.520Z,96837.00
2023-04-14T03:04:46.462Z,96858.00
2023-04-14T03:07:25.332Z,96863.00
2023-04-14T03:09:52.799Z,96846.00
2023-04-14T03:12:23.628Z,96856.00
2023-04-14T03:14:52.035Z,96869.00
2023-04-14T03:17:20.625Z,96863.00
2023-04-14T03:19:50.707Z,96862.00
2023-04-14T03:22:19.716Z,96864.00
2023-04-14T03:24:46.956Z,96858.00
2023-04-14T03:27:21.947Z,96857.00
2023-04-14T03:29:52.865Z,96876.00
2023-04-14T03:32:24.103Z,96861.00
2023-04-14T03:34:55.754Z,96862.00
2023-04-14T03:37:26.670Z,96869.00
2023-04-14T03:39:59.703Z,96860.00
2023-04-14T03:42:29.481Z,96868.00
2023-04-14T03:44:57.837Z,96881.00
2023-04-14T03:47:26.182Z,96867.00
2023-04-14T03:49:58.886Z,96872.00
2023-04-14T03:52:30.631Z,96860.00
2023-04-14T03:55:02.614Z,96846.00
2023-04-14T03:57:31.611Z,96858.00
2023-04-14T04:00:04.390Z,96866.00
2023-04-14T04:02:42.393Z,96857.00
2023-04-14T04:05:10.765Z,96863.00
2023-04-14T04:07:40.629Z,96860.00
2023-04-14T04:10:08.894Z,96861.00
2023-04-14T04:12:38.024Z,96863.00
2023-04-14T04:15:09.485Z,96856.00
2023-04-14T04:17:37.785Z,96858.00
2023-04-14T04:20:10.917Z,96869.00
2023-04-14T04:22:41.301Z,96858.00
2023-04-14T04:25:10.837Z,96876.00
2023-04-14T04:27:40.188Z,96860.00
2023-04-14T04:30:16.276Z,96856.00
2023-04-14T04:32:42.746Z,96869.00
2023-04-14T04:35:11.555Z,96856.00
2023-04-14T04:37:42.311Z,96857.00
2023-04-14T04:40:09.629Z,96867.00
2023-04-14T04:42:41.787Z,96869.00
2023-04-14T04:45:10.301Z,96870.00
2023-04-14T04:47:36.836Z,96880.00
2023-04-14T04:50:03.355Z,96873.00
2023-04-14T04:52:29.554Z,96870.00
2023-04-14T04:54:55.851Z,96867.00
2023-04-14T04:57:21.918Z,96870.00
2023-04-14T04:59:48.276Z,96868.00
2023-04-14T05:02:14.676Z,96867.00
2023-04-14T05:04:40.913Z,96872.00
2023-04-14T05:07:07.736Z,96864.00
2023-04-14T05:09:33.857Z,96868.00
2023-04-14T05:12:00.215Z,96875.00
2023-04-14T05:14:27.552Z,96888.00
2023-04-14T05:16:54.078Z,96872.00
2023-04-14T05:19:20.299Z,96866.00
2023-04-14T05:21:46.645Z,96880.00
2023-04-14T05:24:12.767Z,96875.00
2023-04-14T05:26:57.734Z,96878.00
2023-04-14T05:29:25.226Z,96890.00
2023-04-14T05:31:51.317Z,96865.00
2023-04-14T05:34:17.440Z,96873.00
2023-04-14T05:36:43.581Z,96879.00
2023-04-14T05:39:09.813Z,96871.00
2023-04-14T05:41:35.937Z,96877.00
2023-04-14T05:44:03.276Z,96873.00
2023-04-14T05:46:29.967Z,96881.00
2023-04-14T05:48:56.888Z,96867.00
2023-04-14T05:51:23.031Z,96865.00
2023-04-14T05:53:49.162Z,96883.00
2023-04-14T05:56:15.288Z,96886.00
2023-04-14T05:58:41.410Z,96879.00
2023-04-14T06:01:07.790Z,96883.00
2023-04-14T06:03:34.374Z,96881.00
2023-04-14T06:06:01.776Z,96888.00
2023-04-14T06:08:29.615Z,96885.00
2023-04-14T06:10:56.208Z,96886.00
2023-04-14T06:13:22.350Z,96884.00
2023-04-14T06:15:50.270Z,96880.00
2023-04-14T06:18:16.703Z,96885.00
2023-04-14T06:20:42.909Z,96882.00
2023-04-14T06:23:08.990Z,96884.00
2023-04-14T06:25:35.231Z,96896.00
2023-04-14T06:28:03.968Z,96885.00
2023-04-14T06:30:31.575Z,96880.00
2023-04-14T06:33:01.233Z,96875.00
2023-04-14T06:35:32.803Z,96883.00
2023-04-14T06:38:00.419Z,96861.00
2023-04-14T06:40:26.690Z,96862.00
2023-04-14T06:42:52.773Z,96861.00
2023-04-14T06:45:18.912Z,96871.00
2023-04-14T06:47:45.129Z,96864.00
2023-04-14T06:50:11.832Z,96867.00
2023-04-14T06:52:38.034Z,96859.00
2023-04-14T06:55:04.872Z,96862.00
2023-04-14T06:57:31.227Z,96855.00
2023-04-14T06:59:57.392Z,96863.00
2023-04-14T07:02:26.584Z,96845.00
2023-04-14T07:04:53.034Z,96840.00
2023-04-14T07:07:19.250Z,96838.00
2023-04-14T07:09:45.463Z,96839.00
2023-04-14T07:12:16.627Z,96847.00
2023-04-14T07:14:50.141Z,96834.00
2023-04-14T07:17:18.028Z,96815.00
2023-04-14T07:19:45.420Z,96834.00
2023-04-14T07:22:11.767Z,96829.00
2023-04-14T07:24:39.645Z,96835.00
2023-04-14T07:27:14.469Z,96833.00
2023-04-14T07:29:41.565Z,96849.00
2023-04-14T07:32:07.817Z,96840.00
2023-04-14T07:34:33.976Z,96842.00
2023-04-14T07:37:00.578Z,96849.00
2023-04-14T07:39:26.737Z,96832.00
2023-04-14T07:41:53.123Z,96838.00
2023-04-14T07:44:19.418Z,96831.00
2023-04-14T07:46:45.650Z,96833.00
2023-04-14T07:49:11.895Z,96838.00
2023-04-14T07:51:38.018Z,96823.00
2023-04-14T07:54:05.446Z,96833.00
2023-04-14T07:56:31.627Z,96839.00
2023-04-14T07:58:57.813Z,96840.00
2023-04-14T08:01:23.963Z,96844.00
2023-04-14T08:03:50.702Z,96816.00
2023-04-14T08:06:18.588Z,96843.00
2023-04-14T08:08:44.948Z,96838.00
2023-04-14T08:11:11.326Z,96829.00
2023-04-14T08:13:37.428Z,96827.00
2023-04-14T08:16:03.864Z,96835.00
2023-04-14T08:18:30.511Z,96835.00
2023-04-14T08:20:56.925Z,96846.00
2023-04-14T08:23:23.478Z,96845.00
2023-04-14T08:25:49.757Z,96836.00
2023-04-14T08:28:16.482Z,96836.00
2023-04-14T08:30:44.418Z,96832.00
2023-04-14T08:33:11.169Z,96827.00
2023-04-14T08:35:42.576Z,96815.00
2023-04-14T08:38:09.124Z,96825.00
2023-04-14T08:40:41.378Z,96828.00
2023-04-14T08:43:08.634Z,96829.00
2023-04-14T08:45:36.111Z,96841.00
2023-04-14T08:48:04.792Z,96828.00
2023-04-14T08:50:36.255Z,96830.00
2023-04-14T08:53:07.976Z,96822.00
2023-04-14T08:55:42.540Z,96828.00
2023-04-14T08:58:12.032Z,96814.00
2023-04-14T09:00:39.142Z,96813.00
2023-04-14T09:03:06.376Z,96808.00
2023-04-14T09:05:32.966Z,96808.00
2023-04-14T09:07:59.982Z,96820.00
2023-04-14T09:10:26.682Z,96834.00
2023-04-14T09:12:53.910Z,96816.00
2023-04-14T09:15:20.877Z,96812.00
2023-04-14T09:17:46.995Z,96806.00
2023-04-14T09:20:35.322Z,96798.00
2023-04-14T09:23:00.644Z,96801.00
2023-04-14T09:25:26.915Z,96796.00
2023-04-14T09:27:53.519Z,96797.00
2023-04-14T09:30:20.115Z,96783.00
2023-04-14T09:32:52.516Z,96794.00
2023-04-14T09:35:18.962Z,96790.00
2023-04-14T09:37:47.879Z,96782.00
2023-04-14T09:40:32.158Z,96801.00
2023-04-14T09:42:59.973Z,96792.00
2023-04-14T09:45:44.814Z,96786.00
2023-04-14T09:48:14.813Z,96785.00
2023-04-14T09:51:09.008Z,96787.00
2023-04-14T09:53:37.641Z,96792.00
2023-04-14T09:56:09.810Z,96779.00
2023-04-14T09:58:42.349Z,96780.00
2023-04-14T10:01:19.752Z,96772.00
2023-04-14T10:03:48.633Z,96782.00
2023-04-14T10:06:16.633Z,96779.00
2023-04-14T10:08:52.453Z,96776.00
2023-04-14T10:11:22.295Z,96769.00
2023-04-14T10:14:03.324Z,96769.00
2023-04-14T10:16:30.300Z,96767.00
2023-04-14T10:18:57.622Z,96760.00
2023-04-14T10:21:24.948Z,96775.00
2023-04-14T10:23:51.511Z,96768.00
2023-04-14T10:26:19.397Z,96748.00
2023-04-14T10:28:48.419Z,96762.00
2023-04-14T10:31:23.007Z,96755.00
2023-04-14T10:33:49.253Z,96751.00
2023-04-14T10:36:28.439Z,96745.00
2023-04-14T10:39:06.936Z,96756.00
2023-04-14T10:41:47.546Z,96763.00
2023-04-14T10:44:34.387Z,96747.00
2023-04-14T10:47:04.094Z,96731.00
2023-04-14T10:49:35.300Z,96750.00
2023-04-14T10:52:05.807Z,96732.00
2023-04-14T10:55:08.935Z,96734.00
2023-04-14T10:57:44.949Z,96725.00
2023-04-14T11:00:22.545Z,96730.00
2023-04-14T11:03:10.140Z,96734.00
2023-04-14T11:05:47.877Z,96721.00
2023-04-14T11:08:16.532Z,96743.00
2023-04-14T11:10:50.469Z,96714.00
2023-04-14T11:13:17.908Z,96718.00
2023-04-14T11:16:03.565Z,96713.00
2023-04-14T11:18:29.870Z,96714.00
2023-04-14T11:21:07.393Z,96720.00
2023-04-14T11:23:35.972Z,96702.00
2023-04-14T11:26:06.066Z,96708.00
2023-04-14T11:28:38.406Z,96719.00
2023-04-14T11:31:08.020Z,96711.00
2023-04-14T11:33:38.982Z,96714.00
2023-04-14T11:36:08.868Z,96724.00
2023-04-14T11:38:42.126Z,96714.00
2023-04-14T11:41:09.159Z,96715.00
2023-04-14T11:43:37.696Z,96713.00
2023-04-14T11:46:05.498Z,96720.00
2023-04-14T11:48:31.777Z,96706.00
2023-04-14T11:51:02.794Z,96702.00
2023-04-14T11:53:29.227Z,96700.00
2023-04-14T11:55:56.800Z,96710.00
2023-04-14T11:58:25.766Z,96700.00
2023-04-14T12:00:56.033Z,96694.00
2023-04-14T12:03:30.810Z,96701.00
2023-04-14T12:06:02.584Z,96702.00
2023-04-14T12:08:33.245Z,96691.00
2023-04-14T12:11:15.975Z,96691.00
2023-04-14T12:13:44.294Z,96694.00
2023-04-14T12:16:15.474Z,96685.00
2023-04-14T12:18:43.232Z,96693.00
2023-04-14T12:21:11.933Z,96695.00
2023-04-14T12:23:42.023Z,96689.00
2023-04-14T12:26:11.963Z,96675.00
2023-04-14T12:28:40.518Z,96678.00
2023-04-14T12:31:07.756Z,96676.00
2023-04-14T12:33:34.343Z,96685.00
2023-04-14T12:36:04.247Z,96668.00
2023-04-14T12:38:31.527Z,96668.00
2023-04-14T12:40:57.729Z,96670.00
2023-04-14T12:43:40.431Z,96658.00
2023-04-14T12:46:07.848Z,96664.00
2023-04-14T12:48:46.185Z,96666.00
2023-04-14T12:51:15.456Z,96663.00
2023-04-14T12:53:44.518Z,96665.00
2023-04-14T12:56:18.718Z,96643.00
2023-04-14T12:58:50.293Z,96643.00
2023-04-14T13:01:20.418Z,96640.00
2023-04-14T13:03:54.639Z,96644.00
2023-04-14T13:06:23.244Z,96635.00
2023-04-14T13:08:55.481Z,96647.00
2023-04-14T13:11:23.785Z,96647.00
2023-04-14T13:13:53.917Z,96640.00
2023-04-14T13:16:21.430Z,96630.00
2023-04-14T13:18:48.060Z,96621.00
2023-04-14T13:21:15.292Z,96625.00
2023-04-14T13:23:41.800Z,96634.00
2023-04-14T13:26:08.785Z,96625.00
2023-04-14T13:28:36.528Z,96634.00
2023-04-14T13:31:02.701Z,96629.00
2023-04-14T13:33:28.845Z,96632.00
2023-04-14T13:35:55.843Z,96624.00
2023-04-14T13:38:22.426Z,96614.00
2023-04-14T13:40:48.861Z,96598.00
2023-04-14T13:43:17.652Z,96612.00
2023-04-14T13:45:44.310Z,96605.00
2023-04-14T13:48:10.799Z,96615.00
2023-04-14T13:50:36.932Z,96587.00
2023-04-14T13:53:03.236Z,96594.00
2023-04-14T13:55:29.664Z,96602.00
2023-04-14T13:57:56.039Z,96606.00
2023-04-14T14:00:22.274Z,96602.00
2023-04-14T14:02:48.511Z,96592.00
2023-04-14T14:05:15.367Z,96612.00
2023-04-14T14:07:42.654Z,96607.00
2023-04-14T14:10:10.079Z,96594.00
2023-04-14T14:12:36.968Z,96607.00
2023-04-14T14:15:05.079Z,96588.00
2023-04-14T14:17:31.972Z,96595.00
2023-04-14T14:19:58.643Z,96587.00
2023-04-14T14:22:25.445Z,96586.00
2023-04-14T14:24:55.065Z,96586.00
2023-04-14T14:27:25.599Z,96586.00
2023-04-14T14:29:52.920Z,96595.00
2023-04-14T14:32:19.221Z,96595.00
2023-04-14T14:34:46.762Z,96587.00
2023-04-14T14:37:14.227Z,96596.00
2023-04-14T14:39:40.575Z,96578.00
2023-04-14T14:42:06.825Z,96583.00
2023-04-14T14:44:33.017Z,96583.00
2023-04-14T14:46:59.703Z,96570.00
2023-04-14T14:49:25.887Z,96584.00
2023-04-14T14:51:52.113Z,96579.00
2023-04-14T14:54:18.322Z,96574.00
2023-04-14T14:56:44.566Z,96580.00
2023-04-14T14:59:11.865Z,96590.00
2023-04-14T15:01:38.294Z,96583.00
2023-04-14T15:04:05.556Z,96581.00
2023-04-14T15:06:32.107Z,96564.00
2023-04-14T15:08:59.262Z,96574.00
2023-04-14T15:11:26.976Z,96576.00
2023-04-14T15:13:58.124Z,96574.00
2023-04-14T15:16:24.389Z,96560.00
2023-04-14T15:18:50.791Z,96572.00
2023-04-14T15:21:17.104Z,96572.00
2023-04-14T15:23:44.738Z,96584.00
2023-04-14T15:26:14.222Z,96578.00
2023-04-14T15:28:40.587Z,96578.00
2023-04-14T15:31:08.269Z,96561.00
2023-04-14T15:33:35.280Z,96565.00
2023-04-14T15:36:01.955Z,96565.00
2023-04-14T15:38:28.415Z,96577.00
2023-04-14T15:40:54.941Z,96562.00
2023-04-14T15:43:21.385Z,96572.00
2023-04-14T15:45:47.544Z,96574.00
2023-04-14T15:48:13.749Z,96567.00
2023-04-14T15:50:44.766Z,96565.00
2023-04-14T15:53:11.620Z,96579.00
2023-04-14T15:55:37.756Z,96570.00
2023-04-14T15:58:04.877Z,96565.00
2023-04-14T16:00:31.348Z,96568.00
2023-04-14T16:02:58.078Z,96578.00
2023-04-14T16:05:24.348Z,96571.00
2023-04-14T16:07:51.198Z,96558.00
2023-04-14T16:10:17.423Z,96570.00
2023-04-14T16:12:43.763Z,96568.00
2023-04-14T16:15:10.693Z,96566.00
2023-04-14T16:17:36.913Z,96553.00
2023-04-14T16:20:03.572Z,96575.00
2023-04-14T16:22:30.407Z,96553.00
2023-04-14T16:24:56.572Z,96560.00
2023-04-14T16:27:22.698Z,96575.00
2023-04-14T16:29:49.280Z,96582.00
2023-04-14T16:32:16.906Z,96576.00
2023-04-14T16:34:43.192Z,96576.00
2023-04-14T16:37:09.592Z,96575.00
2023-04-14T16:39:35.768Z,96560.00
2023-04-14T16:42:02.569Z,96580.00
2023-04-14T16:44:28.878Z,96575.00
2023-04-14T16:46:55.410Z,96579.00
2023-04-14T16:49:21.756Z,96572.00
2023-04-14T16:51:47.901Z,96573.00
2023-04-14T16:54:14.345Z,96584.00
2023-04-14T16:56:40.580Z,96571.00
2023-04-14T16:59:07.209Z,96571.00
2023-04-14T17:01:33.401Z,96571.00
2023-04-14T17:04:00.036Z,96565.00
2023-04-14T17:06:26.457Z,96583.00
2023-04-14T17:08:52.572Z,96568.00
2023-04-14T17:11:19.592Z,96581.00
2023-04-14T17:13:46.031Z,96582.00
2023-04-14T17:16:12.173Z,96569.00
2023-04-14T17:18:38.451Z,96573.00
2023-04-14T17:21:05.541Z,96568.00
2023-04-14T17:23:38.722Z,96591.00
2023-04-14T17:26:05.328Z,96588.00
2023-04-14T17:28:33.017Z,96580.00
2023-04-14T17:30:59.909Z,96574.00
2023-04-14T17:33:26.484Z,96573.00
2023-04-14T17:35:56.583Z,96589.00
2023-04-14T17:38:22.899Z,96586.00
2023-04-14T17:40:50.397Z,96585.00
2023-04-14T17:43:16.788Z,96596.00
2023-04-14T17:45:45.512Z,96599.00
2023-04-14T17:48:12.182Z,96606.00
2023-04-14T17:50:38.757Z,96590.00
2023-04-14T17:53:05.264Z,96600.00
2023-04-14T17:55:32.387Z,96604.00
2023-04-14T17:57:59.660Z,96586.00
2023-04-14T18:00:27.133Z,96604.00
2023-04-14T18:02:53.416Z,96619.00
2023-04-14T18:05:20.296Z,96597.00
2023-04-14T18:07:46.741Z,96606.00
2023-04-14T18:10:13.132Z,96602.00
2023-04-14T18:12:39.464Z,96606.00
2023-04-14T18:15:06.643Z,96605.00
2023-04-14T18:17:35.454Z,96617.00
2023-04-14T18:20:02.487Z,96620.00
2023-04-14T18:22:29.445Z,96627.00
2023-04-14T18:24:55.598Z,96623.00
2023-04-14T18:29:52.177Z,96640.00
2023-04-14T18:32:18.314Z,96635.00
2023-04-14T18:34:44.716Z,96634.00
2023-04-14T18:37:11.176Z,96636.00
2023-04-14T18:39:37.395Z,96628.00
2023-04-14T18:42:04.743Z,96648.00
2023-04-14T18:44:30.950Z,96641.00
2023-04-14T18:46:57.204Z,96640.00
2023-04-14T18:49:23.970Z,96636.00
2023-04-14T18:51:51.091Z,96638.00
2023-04-14T18:54:18.364Z,96646.00
2023-04-14T18:56:45.492Z,96639.00
2023-04-14T18:59:11.854Z,96648.00
2023-04-14T19:01:38.500Z,96657.00
2023-04-14T19:04:07.867Z,96657.00
2023-04-14T19:06:34.343Z,96658.00
2023-04-14T19:09:01.375Z,96657.00
2023-04-14T19:11:28.282Z,96659.00
2023-04-14T19:13:54.687Z,96675.00
2023-04-14T19:16:21.836Z,96661.00
2023-04-14T19:18:48.096Z,96671.00
2023-04-14T19:21:14.308Z,96656.00
2023-04-14T19:23:41.588Z,96674.00
2023-04-14T19:26:09.640Z,96674.00
2023-04-14T19:28:38.953Z,96679.00
2023-04-14T19:31:05.585Z,96669.00
2023-04-14T19:33:32.142Z,96681.00
2023-04-14T19:35:58.392Z,96666.00
2023-04-14T19:38:24.795Z,96670.00
2023-04-14T19:40:52.059Z,96682.00
2023-04-14T19:43:18.557Z,96680.00
2023-04-14T19:45:52.314Z,96685.00
2023-04-14T19:48:23.431Z,96681.00
2023-04-14T19:50:53.677Z,96673.00
2023-04-14T19:53:21.417Z,96669.00
2023-04-14T19:55:57.312Z,96675.00
2023-04-14T19:58:26.378Z,96667.00
2023-04-14T20:00:56.314Z,96669.00
2023-04-14T20:03:24.156Z,96680.00
2023-04-14T20:05:56.358Z,96686.00
2023-04-14T20:08:23.914Z,96679.00
2023-04-14T20:10:53.577Z,96675.00
2023-04-14T20:13:22.024Z,96672.00
2023-04-14T20:15:49.878Z,96694.00
2023-04-14T20:18:19.145Z,96680.00
2023-04-14T20:20:48.803Z,96677.00
2023-04-14T20:23:15.444Z,96681.00
2023-04-14T20:25:43.210Z,96678.00
2023-04-14T20:28:09.410Z,96670.00
2023-04-14T20:30:35.711Z,96684.00
2023-04-14T20:33:03.825Z,96672.00
2023-04-14T20:35:32.139Z,96686.00
2023-04-14T20:37:58.732Z,96676.00
2023-04-14T20:40:25.139Z,96682.00
2023-04-14T20:42:51.262Z,96671.00
2023-04-14T20:45:17.793Z,96686.00
2023-04-14T20:47:44.232Z,96669.00
2023-04-14T20:50:10.749Z,96690.00
2023-04-14T20:52:36.894Z,96680.00
2023-04-14T20:55:03.342Z,96673.00
2023-04-14T20:57:29.440Z,96681.00
2023-04-14T20:59:56.128Z,96660.00
2023-04-14T21:02:22.421Z,96680.00
2023-04-14T21:04:48.985Z,96689.00
2023-04-14T21:07:15.906Z,96687.00
2023-04-14T21:09:42.414Z,96682.00
2023-04-14T21:12:15.320Z,96686.00
2023-04-14T21:15:30.528Z,96690.00
2023-04-14T21:17:28.944Z,96681.00
2023-04-14T21:19:55.500Z,96675.00
2023-04-14T21:22:21.736Z,96675.00
2023-04-14T21:24:48.739Z,96677.00
2023-04-14T21:27:16.752Z,96671.00
2023-04-14T21:29:43.881Z,96673.00
2023-04-14T21:32:11.073Z,96661.00
2023-04-14T21:34:37.477Z,96676.00
2023-04-14T21:37:04.321Z,96680.00
2023-04-14T21:39:32.498Z,96670.00
2023-04-14T21:42:03.068Z,96676.00
2023-04-14T21:44:29.478Z,96679.00
2023-04-14T21:46:55.706Z,96684.00
2023-04-14T21:49:22.161Z,96694.00
2023-04-14T21:51:50.554Z,96703.00
2023-04-14T21:54:17.074Z,96683.00
2023-04-14T21:56:44.457Z,96690.00
2023-04-14T21:59:10.920Z,96685.00
2023-04-14T22:01:37.618Z,96689.00
2023-04-14T22:04:04.312Z,96679.00
2023-04-14T22:06:32.870Z,96689.00
2023-04-14T22:08:59.139Z,96695.00
2023-04-14T22:11:25.565Z,96693.00
2023-04-14T22:13:51.815Z,96682.00
2023-04-14T22:16:19.327Z,96701.00
2023-04-14T22:18:45.678Z,96699.00
2023-04-14T22:21:15.989Z,96694.00
2023-04-14T22:23:43.178Z,96701.00
2023-04-14T22:26:10.961Z,96700.00
2023-04-14T22:28:37.361Z,96705.00
2023-04-14T22:31:03.864Z,96697.00
2023-04-14T22:33:30.291Z,96700.00
2023-04-14T22:35:59.254Z,96703.00
2023-04-14T22:38:26.107Z,96699.00
2023-04-14T22:40:52.914Z,96703.00
2023-04-14T22:43:19.181Z,96709.00
2023-04-14T22:45:45.612Z,96705.00
2023-04-14T22:48:11.750Z,96711.00
2023-04-14T22:50:38.422Z,96702.00
2023-04-14T22:53:06.120Z,96720.00
2023-04-14T22:55:32.329Z,96722.00
2023-04-14T22:57:58.731Z,96708.00
2023-04-14T23:00:25.845Z,96720.00
2023-04-14T23:02:53.410Z,96713.00
2023-04-14T23:05:19.591Z,96720.00
2023-04-14T23:07:45.829Z,96726.00
2023-04-14T23:10:12.264Z,96715.00
2023-04-14T23:12:38.590Z,96712.00
2023-04-14T23:15:06.910Z,96721.00
2023-04-14T23:17:34.230Z,96710.00
2023-04-14T23:20:01.597Z,96718.00
2023-04-14T23:22:28.735Z,96711.00
2023-04-14T23:24:55.142Z,96719.00
2023-04-14T23:27:21.477Z,96709.00
2023-04-14T23:29:47.709Z,96717.00
2023-04-14T23:32:14.089Z,96719.00
2023-04-14T23:34:40.252Z,96718.00
2023-04-14T23:37:07.030Z,96727.00
2023-04-14T23:39:33.610Z,96726.00
2023-04-14T23:41:59.832Z,96723.00
2023-04-14T23:44:26.987Z,96734.00
2023-04-14T23:46:53.382Z,96723.00
2023-04-14T23:49:24.638Z,96722.00
2023-04-14T23:52:01.375Z,96708.00
2023-04-14T23:54:29.893Z,96717.00
2023-04-14T23:56:56.054Z,96709.00
2023-04-14T23:59:22.814Z,96697.00
